KAXS/AXS METAR and TAF weather

Enter ICAO airport designator
Station Type Date Time Source
KAXS METAR 2018/07/21 11:35 UTC NOAA

KAXS 211135Z AUTO 00000KT 10SM CLR 26/13 A2996 RMK AO2 T02600125


Station Type Date Time Source
KAXS Decoded METAR 2018/07/21 11:35 UTC NOAA

Altus, Altus/Quartz Mountain Regional Airport, OK, United States (KAXS) 34-41-55N 099-20-17W
Jul 21, 2018 - 07:35 AM EDT / 2018.07.21 1135 UTC
Wind: Calm:0
Visibility: 10 mile(s):0
Sky conditions: clear
Temperature: 78.8 F (26.0 C)
Dew Point: 54.5 F (12.5 C)
Relative Humidity: 43%
Pressure (altimeter): 29.96 in. Hg (1014 hPa)
ob: KAXS 211135Z AUTO 00000KT 10SM CLR 26/13 A2996 RMK AO2 T02600125
cycle: 11

Station Type Date Time Source
KAXS TAF UTC NOAA

Error!


Example: see airport list